createdAt,value
2023-03-21T00:01:54.517Z,16.03
2023-03-21T00:04:58.512Z,16.00
2023-03-21T00:08:05.624Z,15.92
2023-03-21T00:11:09.703Z,15.90
2023-03-21T00:14:14.555Z,15.91
2023-03-21T00:17:17.454Z,15.90
2023-03-21T00:20:20.703Z,15.84
2023-03-21T00:23:22.816Z,15.85
2023-03-21T00:26:26.041Z,15.77
2023-03-21T00:29:28.236Z,15.83
2023-03-21T00:32:30.535Z,15.82
2023-03-21T00:36:06.736Z,15.80
2023-03-21T00:38:54.958Z,15.74
2023-03-21T00:41:57.147Z,15.73
2023-03-21T00:45:00.189Z,15.80
2023-03-21T00:48:02.386Z,15.73
2023-03-21T00:51:12.401Z,15.73
2023-03-21T00:54:14.610Z,15.78
2023-03-21T00:57:16.926Z,15.77
2023-03-21T01:00:20.560Z,15.76
2023-03-21T01:03:26.560Z,15.72
2023-03-21T01:06:28.769Z,15.69
2023-03-21T01:09:30.957Z,15.74
2023-03-21T01:12:33.463Z,15.74
2023-03-21T01:15:36.508Z,15.67
2023-03-21T01:18:40.369Z,15.58
2023-03-21T01:21:44.055Z,15.61
2023-03-21T01:24:55.084Z,15.56
2023-03-21T01:27:57.743Z,15.48
2023-03-21T01:31:02.250Z,15.59
2023-03-21T01:34:04.853Z,15.60
2023-03-21T01:37:07.234Z,15.55
2023-03-21T01:40:25.628Z,15.59
2023-03-21T01:43:37.009Z,15.66
2023-03-21T01:46:57.066Z,15.72
2023-03-21T01:50:23.934Z,15.75
2023-03-21T01:53:49.134Z,15.79
2023-03-21T01:56:54.502Z,15.67
2023-03-21T01:59:57.208Z,15.82
2023-03-21T02:03:11.471Z,15.78
2023-03-21T02:06:35.426Z,15.77
2023-03-21T02:09:49.468Z,15.76
2023-03-21T02:12:58.692Z,15.68
2023-03-21T02:16:34.692Z,15.71
2023-03-21T02:19:53.457Z,15.67
2023-03-21T02:23:43.297Z,15.65
2023-03-21T02:27:03.608Z,15.53
2023-03-21T02:30:42.514Z,15.58
2023-03-21T02:34:37.231Z,15.64
2023-03-21T02:38:00.678Z,15.64
2023-03-21T02:41:18.756Z,15.60
2023-03-21T02:44:45.330Z,15.57
2023-03-21T02:47:55.195Z,15.50
2023-03-21T02:50:59.380Z,15.53
2023-03-21T02:54:27.873Z,15.51
2023-03-21T02:57:40.037Z,15.50
2023-03-21T03:00:46.377Z,15.60
2023-03-21T03:03:57.389Z,15.57
2023-03-21T03:07:05.528Z,15.57
2023-03-21T03:10:10.910Z,15.53
2023-03-21T03:13:43.590Z,15.51
2023-03-21T03:17:03.200Z,15.46
2023-03-21T03:20:17.073Z,15.52
2023-03-21T03:23:28.680Z,15.56
2023-03-21T03:26:37.323Z,15.43
2023-03-21T03:29:41.794Z,15.41
2023-03-21T03:32:48.210Z,15.46
2023-03-21T03:36:04.402Z,15.45
2023-03-21T03:39:12.544Z,15.47
2023-03-21T03:42:28.402Z,15.48
2023-03-21T03:45:47.874Z,15.45
2023-03-21T03:48:56.938Z,15.48
2023-03-21T03:52:04.409Z,15.35
2023-03-21T03:55:14.943Z,15.38
2023-03-21T03:58:23.839Z,15.33
2023-03-21T04:01:29.222Z,15.45
2023-03-21T04:04:43.509Z,15.48
2023-03-21T04:07:46.816Z,15.34
2023-03-21T04:10:49.603Z,15.43
2023-03-21T04:13:52.446Z,15.37
2023-03-21T04:16:59.189Z,15.42
2023-03-21T04:20:11.654Z,15.32
2023-03-21T04:23:19.543Z,15.32
2023-03-21T04:26:24.431Z,15.32
2023-03-21T04:29:50.008Z,15.33
2023-03-21T04:33:05.179Z,15.37
2023-03-21T04:36:09.816Z,15.36
2023-03-21T04:39:17.258Z,15.37
2023-03-21T04:42:23.006Z,15.39
2023-03-21T04:45:25.306Z,15.29
2023-03-21T04:48:28.955Z,15.28
2023-03-21T04:51:32.065Z,15.29
2023-03-21T04:54:34.895Z,15.18
2023-03-21T04:57:38.603Z,15.20
2023-03-21T05:00:41.413Z,15.19
2023-03-21T05:03:43.698Z,15.22
2023-03-21T05:06:46.200Z,15.18
2023-03-21T05:09:48.425Z,15.29
2023-03-21T05:12:52.202Z,15.21
2023-03-21T05:15:54.542Z,15.27
2023-03-21T05:19:05.247Z,15.35
2023-03-21T05:22:14.336Z,15.37
2023-03-21T05:25:35.339Z,15.33
2023-03-21T05:28:48.026Z,15.41
2023-03-21T05:31:50.389Z,15.58
2023-03-21T05:34:52.715Z,15.68
2023-03-21T05:37:57.696Z,15.62
2023-03-21T05:41:02.107Z,15.65
2023-03-21T05:44:05.514Z,15.76
2023-03-21T05:47:08.623Z,15.86
2023-03-21T05:50:20.804Z,15.90
2023-03-21T05:53:39.828Z,16.08
2023-03-21T05:56:42.396Z,15.97
2023-03-21T05:59:47.595Z,16.09
2023-03-21T06:02:53.407Z,16.12
2023-03-21T06:06:22.688Z,16.07
2023-03-21T06:09:34.399Z,16.13
2023-03-21T06:12:39.045Z,16.13
2023-03-21T06:16:04.340Z,16.16
2023-03-21T06:19:09.311Z,16.10
2023-03-21T06:22:38.037Z,16.20
2023-03-21T06:25:41.305Z,16.20
2023-03-21T06:28:44.063Z,16.18
2023-03-21T06:31:46.406Z,16.22
2023-03-21T06:34:48.823Z,16.17
2023-03-21T06:37:51.636Z,16.19
2023-03-21T06:40:54.910Z,16.30
2023-03-21T06:44:00.030Z,16.42
2023-03-21T06:47:03.425Z,16.60
2023-03-21T06:50:07.074Z,17.44
2023-03-21T06:53:15.327Z,18.01
2023-03-21T06:56:43.652Z,18.23
2023-03-21T06:59:48.862Z,18.39
2023-03-21T07:02:54.979Z,18.46
2023-03-21T07:06:08.694Z,18.49
2023-03-21T07:09:18.392Z,18.63
2023-03-21T07:12:23.544Z,18.79
2023-03-21T07:15:58.600Z,18.94
2023-03-21T07:19:06.103Z,19.06
2023-03-21T07:22:08.467Z,18.95
2023-03-21T07:25:11.059Z,19.02
2023-03-21T07:28:17.248Z,18.87
2023-03-21T07:31:20.428Z,18.99
2023-03-21T07:34:23.981Z,18.91
2023-03-21T07:37:26.527Z,18.87
2023-03-21T07:40:28.761Z,19.07
2023-03-21T07:43:31.155Z,19.10
2023-03-21T07:46:34.294Z,19.27
2023-03-21T07:49:37.708Z,19.50
2023-03-21T07:52:39.969Z,19.58
2023-03-21T07:55:42.225Z,19.69
2023-03-21T07:58:44.400Z,19.69
2023-03-21T08:01:46.630Z,19.53
2023-03-21T08:04:49.052Z,19.59
2023-03-21T08:07:51.996Z,19.54
2023-03-21T08:10:54.305Z,19.69
2023-03-21T08:13:58.807Z,19.74
2023-03-21T08:17:01.103Z,19.86
2023-03-21T08:20:07.867Z,19.96
2023-03-21T08:23:10.406Z,19.93
2023-03-21T08:26:16.017Z,19.98
2023-03-21T08:29:18.253Z,20.05
2023-03-21T08:32:20.457Z,20.19
2023-03-21T08:35:22.677Z,20.06
2023-03-21T08:38:29.744Z,20.05
2023-03-21T08:41:32.947Z,20.05
2023-03-21T08:44:35.334Z,19.82
2023-03-21T08:47:37.711Z,19.74
2023-03-21T08:50:42.165Z,19.73
2023-03-21T08:53:44.458Z,19.95
2023-03-21T08:56:46.885Z,19.90
2023-03-21T08:59:55.155Z,19.85
2023-03-21T09:02:59.246Z,19.72
2023-03-21T09:06:02.973Z,19.88
2023-03-21T09:09:07.583Z,19.90
2023-03-21T09:12:10.229Z,19.93
2023-03-21T09:15:13.134Z,20.03
2023-03-21T09:18:18.165Z,20.15
2023-03-21T09:21:21.476Z,20.23
2023-03-21T09:24:24.231Z,20.36
2023-03-21T09:27:28.152Z,20.29
2023-03-21T09:30:36.174Z,20.34
2023-03-21T09:33:41.591Z,20.37
2023-03-21T09:36:48.314Z,20.31
2023-03-21T09:39:55.862Z,20.14
2023-03-21T09:43:04.459Z,20.31
2023-03-21T09:46:37.181Z,20.38
2023-03-21T09:50:07.524Z,20.39
2023-03-21T09:53:31.392Z,20.45
2023-03-21T09:56:36.579Z,20.18
2023-03-21T09:59:46.789Z,20.15
2023-03-21T10:02:56.245Z,20.05
2023-03-21T10:06:01.169Z,20.07
2023-03-21T10:09:12.684Z,20.07
2023-03-21T10:12:30.855Z,20.02
2023-03-21T10:15:35.915Z,20.03
2023-03-21T10:18:38.988Z,20.05
2023-03-21T10:22:03.752Z,20.05
2023-03-21T10:25:09.035Z,20.04
2023-03-21T10:28:23.554Z,20.07
2023-03-21T10:31:28.427Z,20.05
2023-03-21T10:34:33.738Z,20.08
2023-03-21T10:37:36.471Z,20.16
2023-03-21T10:40:40.704Z,20.11
2023-03-21T10:43:53.564Z,20.16
2023-03-21T10:46:58.326Z,20.12
2023-03-21T10:50:12.148Z,20.07
2023-03-21T10:53:29.648Z,20.01
2023-03-21T10:56:39.277Z,20.04
2023-03-21T10:59:47.703Z,20.03
2023-03-21T11:02:52.240Z,20.11
2023-03-21T11:05:57.291Z,20.16
2023-03-21T11:09:13.206Z,20.29
2023-03-21T11:12:38.828Z,20.37
2023-03-21T11:15:48.858Z,20.36
2023-03-21T11:18:52.989Z,20.36
2023-03-21T11:21:57.554Z,20.41
2023-03-21T11:25:01.271Z,20.36
2023-03-21T11:28:12.589Z,20.54
2023-03-21T11:31:17.049Z,20.63
2023-03-21T11:34:28.999Z,20.72
2023-03-21T11:37:55.290Z,20.86
2023-03-21T11:41:01.971Z,20.88
2023-03-21T11:44:04.489Z,20.83
2023-03-21T11:47:09.556Z,20.91
2023-03-21T11:50:27.124Z,20.96
2023-03-21T11:54:19.521Z,21.12
2023-03-21T11:57:42.679Z,21.24
2023-03-21T12:01:13.157Z,21.30
2023-03-21T12:04:15.551Z,21.34
2023-03-21T12:07:36.729Z,21.38
2023-03-21T12:11:13.807Z,21.39
2023-03-21T12:14:34.818Z,21.40
2023-03-21T12:18:04.025Z,21.27
2023-03-21T12:21:30.513Z,21.23
2023-03-21T12:24:43.453Z,21.13
2023-03-21T12:28:03.655Z,21.06
2023-03-21T12:31:12.144Z,21.11
2023-03-21T12:34:19.725Z,21.24
2023-03-21T12:37:55.503Z,21.46
2023-03-21T12:41:33.774Z,21.64
2023-03-21T12:44:39.213Z,21.73
2023-03-21T12:47:43.148Z,21.81
2023-03-21T12:50:46.174Z,21.85
2023-03-21T12:53:53.316Z,21.94
2023-03-21T12:57:10.054Z,22.05
2023-03-21T13:00:24.937Z,22.14
2023-03-21T13:03:41.951Z,22.06
2023-03-21T13:06:44.812Z,22.05
2023-03-21T13:09:47.062Z,21.95
2023-03-21T13:13:09.917Z,21.84
2023-03-21T13:16:27.522Z,21.79
2023-03-21T13:19:42.514Z,21.73
2023-03-21T13:22:45.777Z,21.70
2023-03-21T13:25:50.088Z,21.66
2023-03-21T13:28:52.484Z,21.63
2023-03-21T13:31:57.532Z,21.62
2023-03-21T13:35:21.560Z,21.64
2023-03-21T13:38:28.686Z,21.73
2023-03-21T13:41:30.831Z,21.86
2023-03-21T13:44:39.649Z,21.96
2023-03-21T13:47:52.349Z,22.01
2023-03-21T13:51:05.597Z,21.99
2023-03-21T13:54:07.680Z,21.91
2023-03-21T13:57:23.435Z,21.93
2023-03-21T14:00:30.919Z,21.83
2023-03-21T14:03:34.500Z,21.79
2023-03-21T14:07:07.253Z,21.78
2023-03-21T14:10:20.131Z,21.77
2023-03-21T14:13:25.230Z,21.63
2023-03-21T14:16:33.256Z,21.71
2023-03-21T14:19:35.517Z,21.68
2023-03-21T14:22:39.365Z,21.68
2023-03-21T14:25:47.506Z,21.58
2023-03-21T14:28:53.040Z,21.68
2023-03-21T14:31:56.408Z,21.72
2023-03-21T14:35:01.102Z,21.73
2023-03-21T14:38:09.327Z,21.87
2023-03-21T14:41:25.318Z,21.94
2023-03-21T14:44:41.051Z,21.95
2023-03-21T14:48:04.157Z,22.02
2023-03-21T14:51:10.924Z,22.07
2023-03-21T14:54:17.712Z,22.09
2023-03-21T14:57:24.966Z,22.12
2023-03-21T15:00:29.818Z,22.19
2023-03-21T15:03:32.738Z,22.20
2023-03-21T15:06:51.934Z,22.27
2023-03-21T15:10:04.723Z,22.21
2023-03-21T15:13:16.240Z,22.30
2023-03-21T15:16:19.172Z,22.19
2023-03-21T15:19:26.237Z,22.23
2023-03-21T15:22:37.418Z,22.29
2023-03-21T15:25:40.069Z,22.31
2023-03-21T15:28:45.537Z,22.38
2023-03-21T15:31:48.340Z,22.43
2023-03-21T15:34:52.292Z,22.51
2023-03-21T15:37:58.573Z,22.40
2023-03-21T15:41:19.065Z,22.47
2023-03-21T15:44:22.184Z,22.28
2023-03-21T15:47:41.130Z,22.27
2023-03-21T15:50:51.734Z,22.22
2023-03-21T15:53:54.326Z,22.07
2023-03-21T15:57:01.332Z,22.00
2023-03-21T16:00:19.900Z,21.97
2023-03-21T16:03:28.348Z,21.93
2023-03-21T16:06:35.659Z,21.87
2023-03-21T16:09:44.053Z,21.77
2023-03-21T16:12:46.239Z,21.73
2023-03-21T16:15:48.483Z,21.57
2023-03-21T16:18:51.597Z,21.52
2023-03-21T16:21:53.809Z,21.44
2023-03-21T16:24:56.001Z,21.15
2023-03-21T16:27:58.247Z,21.05
2023-03-21T16:31:00.846Z,20.97
2023-03-21T16:34:05.103Z,20.93
2023-03-21T16:37:10.428Z,20.73
2023-03-21T16:40:18.259Z,20.63
2023-03-21T16:43:20.878Z,20.52
2023-03-21T16:46:25.406Z,20.49
2023-03-21T16:49:27.646Z,20.38
2023-03-21T16:52:29.890Z,20.25
2023-03-21T16:55:33.500Z,20.22
2023-03-21T16:58:35.812Z,20.05
2023-03-21T17:01:40.244Z,19.91
2023-03-21T17:04:43.070Z,19.80
2023-03-21T17:07:47.096Z,19.76
2023-03-21T17:10:49.373Z,19.72
2023-03-21T17:13:53.820Z,19.65
2023-03-21T17:16:56.160Z,19.53
2023-03-21T17:19:58.454Z,19.50
2023-03-21T17:23:01.409Z,19.46
2023-03-21T17:26:03.692Z,19.44
2023-03-21T17:29:06.133Z,19.31
2023-03-21T17:32:08.388Z,19.28
2023-03-21T17:35:10.606Z,19.23
2023-03-21T17:38:16.735Z,19.22
2023-03-21T17:41:20.306Z,19.19
2023-03-21T17:44:22.576Z,19.04
2023-03-21T17:47:25.699Z,18.93
2023-03-21T17:50:34.250Z,18.91
2023-03-21T17:53:36.461Z,18.88
2023-03-21T17:56:41.831Z,18.79
2023-03-21T17:59:44.266Z,18.76
2023-03-21T18:02:47.376Z,18.79
2023-03-21T18:05:49.563Z,18.71
2023-03-21T18:08:53.075Z,18.63
2023-03-21T18:11:55.329Z,18.54
2023-03-21T18:14:57.614Z,18.55
2023-03-21T18:17:59.872Z,18.57
2023-03-21T18:21:02.423Z,18.53
2023-03-21T18:24:05.243Z,18.49
2023-03-21T18:27:08.758Z,18.53
2023-03-21T18:30:32.777Z,18.50
2023-03-21T18:33:40.211Z,18.52
2023-03-21T18:36:42.759Z,18.40
2023-03-21T18:39:45.560Z,18.40
2023-03-21T18:43:41.432Z,18.40
2023-03-21T18:46:10.367Z,18.43
2023-03-21T18:52:38.283Z,18.32
2023-03-21T18:55:46.043Z,18.30
2023-03-21T18:58:48.886Z,18.26
2023-03-21T19:01:51.478Z,18.26
2023-03-21T19:04:54.091Z,18.23
2023-03-21T19:07:56.386Z,18.18
2023-03-21T19:11:03.352Z,18.16
2023-03-21T19:14:12.145Z,18.14
2023-03-21T19:20:38.319Z,17.98
2023-03-21T19:24:16.329Z,17.88
2023-03-21T19:27:03.184Z,17.90
2023-03-21T19:30:14.319Z,17.86
2023-03-21T19:33:19.909Z,17.81
2023-03-21T19:36:23.412Z,17.78
2023-03-21T19:39:26.114Z,17.73
2023-03-21T19:42:30.693Z,17.67
2023-03-21T19:45:33.267Z,17.65
2023-03-21T19:48:38.011Z,17.60
2023-03-21T19:51:40.749Z,17.53
2023-03-21T19:54:43.267Z,17.57
2023-03-21T19:57:48.651Z,17.52
2023-03-21T20:00:50.916Z,17.53
2023-03-21T20:03:53.739Z,17.54
2023-03-21T20:06:58.188Z,17.39
2023-03-21T20:10:00.636Z,17.38
2023-03-21T20:13:02.890Z,17.47
2023-03-21T20:16:05.269Z,17.46
2023-03-21T20:19:10.198Z,17.42
2023-03-21T20:22:24.613Z,17.42
2023-03-21T20:25:31.186Z,17.40
2023-03-21T20:28:33.472Z,17.41
2023-03-21T20:31:35.783Z,17.41
2023-03-21T20:34:38.331Z,17.31
2023-03-21T20:37:47.922Z,17.35
2023-03-21T20:40:50.107Z,17.31
2023-03-21T20:47:16.514Z,17.20
2023-03-21T20:50:22.047Z,17.19
2023-03-21T20:53:25.027Z,17.23
2023-03-21T20:56:27.291Z,17.18
2023-03-21T20:59:29.714Z,17.24
2023-03-21T21:02:32.087Z,17.22
2023-03-21T21:05:34.976Z,17.24
2023-03-21T21:08:38.135Z,17.19
2023-03-21T21:12:05.491Z,17.19
2023-03-21T21:15:03.052Z,17.23
2023-03-21T21:18:07.440Z,17.14
2023-03-21T21:21:10.127Z,17.15
2023-03-21T21:24:14.571Z,17.20
2023-03-21T21:27:17.061Z,17.14
2023-03-21T21:30:19.284Z,17.01
2023-03-21T21:33:22.382Z,17.03
2023-03-21T21:36:24.558Z,17.04
2023-03-21T21:39:27.563Z,17.11
2023-03-21T21:42:29.729Z,17.07
2023-03-21T21:45:32.192Z,17.04
2023-03-21T21:48:34.408Z,17.02
2023-03-21T21:51:36.689Z,16.90
2023-03-21T21:54:45.476Z,16.82
2023-03-21T21:57:50.313Z,16.79
2023-03-21T22:00:52.575Z,16.72
2023-03-21T22:03:57.702Z,16.64
2023-03-21T22:06:59.897Z,16.57
2023-03-21T22:10:02.016Z,16.53
2023-03-21T22:13:04.381Z,16.51
2023-03-21T22:16:06.983Z,16.46
2023-03-21T22:19:09.271Z,16.49
2023-03-21T22:22:11.511Z,16.51
2023-03-21T22:25:15.374Z,16.59
2023-03-21T22:28:17.941Z,16.57
2023-03-21T22:31:20.947Z,16.64
2023-03-21T22:34:26.044Z,16.75
2023-03-21T22:37:29.316Z,16.69
2023-03-21T22:40:31.478Z,16.56
2023-03-21T22:43:34.471Z,16.58
2023-03-21T22:46:36.725Z,16.52
2023-03-21T22:49:40.216Z,16.41
2023-03-21T22:52:42.471Z,16.39
2023-03-21T22:55:44.584Z,16.39
2023-03-21T22:58:46.801Z,16.39
2023-03-21T23:01:49.293Z,16.30
2023-03-21T23:04:51.505Z,16.30
2023-03-21T23:07:54.006Z,16.27
2023-03-21T23:10:56.394Z,16.24
2023-03-21T23:14:07.694Z,16.23
2023-03-21T23:17:12.483Z,16.20
2023-03-21T23:20:14.825Z,16.09
2023-03-21T23:23:17.336Z,16.07
2023-03-21T23:26:21.745Z,16.07
2023-03-21T23:29:23.934Z,16.02
2023-03-21T23:32:26.166Z,15.95
2023-03-21T23:35:28.407Z,15.95
2023-03-21T23:38:31.148Z,15.98
2023-03-21T23:41:33.441Z,15.95
2023-03-21T23:44:35.698Z,15.91
2023-03-21T23:47:37.942Z,15.86
2023-03-21T23:50:40.488Z,15.89
2023-03-21T23:53:44.434Z,15.87
2023-03-21T23:56:46.741Z,15.85
2023-03-21T23:59:48.984Z,15.85
